createdAt,value
2023-03-08T00:04:04.441Z,61.86
2023-03-08T00:09:07.136Z,62.15
2023-03-08T00:14:09.816Z,62.29
2023-03-08T00:19:12.299Z,61.98
2023-03-08T00:24:17.758Z,62.30
2023-03-08T00:29:20.170Z,62.34
2023-03-08T00:34:22.757Z,62.67
2023-03-08T00:39:25.254Z,63.19
2023-03-08T00:44:27.842Z,63.37
2023-03-08T00:49:30.249Z,63.74
2023-03-08T00:54:33.978Z,64.20
2023-03-08T00:59:36.673Z,64.18
2023-03-08T01:04:40.421Z,64.32
2023-03-08T01:09:42.860Z,64.88
2023-03-08T01:14:45.220Z,65.63
2023-03-08T01:19:49.374Z,66.12
2023-03-08T01:24:53.491Z,66.51
2023-03-08T01:29:55.922Z,66.96
2023-03-08T01:35:04.572Z,67.62
2023-03-08T01:40:08.272Z,67.54
2023-03-08T01:45:48.348Z,67.90
2023-03-08T01:50:51.246Z,68.46
2023-03-08T01:55:54.491Z,68.86
2023-03-08T02:05:59.612Z,69.48
2023-03-08T02:11:02.960Z,70.22
2023-03-08T02:16:09.817Z,70.06
2023-03-08T02:21:13.128Z,69.83
2023-03-08T02:26:16.300Z,69.88
2023-03-08T02:31:18.705Z,70.10
2023-03-08T02:36:21.088Z,69.86
2023-03-08T02:41:25.678Z,70.49
2023-03-08T02:46:28.700Z,70.06
2023-03-08T02:51:33.134Z,70.07
2023-03-08T02:56:37.588Z,69.65
2023-03-08T03:01:40.428Z,69.41
2023-03-08T03:06:43.030Z,69.27
2023-03-08T03:11:47.598Z,69.70
2023-03-08T03:16:50.325Z,68.42
2023-03-08T03:21:53.145Z,68.89
2023-03-08T03:26:55.683Z,68.73
2023-03-08T03:32:00.708Z,68.98
2023-03-08T03:37:03.966Z,69.21
2023-03-08T03:42:10.286Z,69.21
2023-03-08T03:47:18.077Z,69.64
2023-03-08T03:52:22.103Z,69.32
2023-03-08T03:57:32.337Z,69.40
2023-03-08T04:02:35.583Z,69.80
2023-03-08T04:07:38.429Z,69.99
2023-03-08T04:12:42.517Z,70.04
2023-03-08T04:17:45.566Z,69.68
2023-03-08T04:22:49.287Z,69.91
2023-03-08T04:27:58.491Z,69.88
2023-03-08T04:33:01.491Z,69.86
2023-03-08T04:38:12.277Z,69.91
2023-03-08T04:43:15.615Z,69.22
2023-03-08T04:48:18.871Z,68.71
2023-03-08T04:53:23.674Z,68.64
2023-03-08T04:58:26.692Z,68.27
2023-03-08T05:03:29.540Z,68.35
2023-03-08T05:08:32.021Z,68.30
2023-03-08T05:13:37.492Z,68.30
2023-03-08T05:18:41.146Z,68.24
2023-03-08T05:23:44.972Z,68.41
2023-03-08T05:28:49.288Z,67.81
2023-03-08T05:33:53.853Z,67.91
2023-03-08T05:39:07.149Z,67.81
2023-03-08T05:44:22.709Z,68.21
2023-03-08T05:49:25.408Z,67.44
2023-03-08T05:54:28.452Z,67.65
2023-03-08T05:59:35.194Z,67.73
2023-03-08T06:04:39.737Z,67.83
2023-03-08T06:09:42.198Z,67.15
2023-03-08T06:14:49.359Z,67.21
2023-03-08T06:19:54.637Z,67.36
2023-03-08T06:24:58.253Z,67.36
2023-03-08T06:30:07.391Z,67.14
2023-03-08T06:35:10.953Z,67.33
2023-03-08T06:40:20.910Z,67.45
2023-03-08T06:45:23.903Z,67.14
2023-03-08T06:50:26.553Z,66.28
2023-03-08T06:55:29.322Z,65.90
2023-03-08T07:00:32.391Z,65.33
2023-03-08T07:05:35.368Z,65.41
2023-03-08T07:10:38.291Z,65.72
2023-03-08T07:15:41.473Z,65.80
2023-03-08T07:20:49.663Z,66.33
2023-03-08T07:25:52.451Z,66.33
2023-03-08T07:30:56.094Z,65.70
2023-03-08T07:36:01.814Z,65.29
2023-03-08T07:41:04.412Z,65.61
2023-03-08T07:46:07.139Z,64.41
2023-03-08T07:51:10.705Z,63.86
2023-03-08T07:56:13.378Z,63.68
2023-03-08T08:01:16.077Z,64.72
2023-03-08T08:06:19.994Z,67.34
2023-03-08T08:11:23.267Z,69.32
2023-03-08T08:16:25.917Z,69.83
2023-03-08T08:21:28.383Z,69.93
2023-03-08T08:26:30.813Z,72.99
2023-03-08T08:31:36.380Z,71.70
2023-03-08T08:36:39.058Z,71.16
2023-03-08T08:41:41.628Z,71.08
2023-03-08T08:46:44.050Z,71.73
2023-03-08T08:51:46.502Z,72.84
2023-03-08T08:56:48.892Z,73.04
2023-03-08T09:01:51.094Z,73.60
2023-03-08T09:06:53.825Z,73.95
2023-03-08T09:11:56.200Z,73.76
2023-03-08T09:16:58.335Z,74.68
2023-03-08T09:22:00.447Z,72.41
2023-03-08T09:27:06.473Z,72.62
2023-03-08T09:32:09.481Z,74.78
2023-03-08T09:37:12.435Z,73.79
2023-03-08T09:42:34.373Z,71.54
2023-03-08T09:48:11.294Z,71.22
2023-03-08T09:53:38.633Z,70.48
2023-03-08T09:58:40.955Z,71.60
2023-03-08T10:04:11.971Z,72.04
2023-03-08T10:09:42.093Z,72.90
2023-03-08T10:14:50.610Z,72.45
2023-03-08T10:20:01.195Z,73.84
2023-03-08T10:25:30.494Z,77.11
2023-03-08T10:30:40.389Z,80.26
2023-03-08T10:36:12.752Z,82.13
2023-03-08T10:41:18.577Z,82.58
2023-03-08T10:46:24.516Z,83.03
2023-03-08T10:51:30.443Z,79.76
2023-03-08T10:56:35.705Z,77.68
2023-03-08T11:01:52.948Z,76.60
2023-03-08T11:06:55.799Z,78.37
2023-03-08T11:12:00.097Z,79.36
2023-03-08T11:17:13.883Z,78.04
2023-03-08T11:22:29.648Z,80.84
2023-03-08T11:27:50.100Z,82.31
2023-03-08T11:33:09.036Z,84.71
2023-03-08T11:38:31.314Z,84.39
2023-03-08T11:43:58.674Z,83.16
2023-03-08T11:49:27.825Z,81.09
2023-03-08T11:55:06.353Z,82.09
2023-03-08T12:00:28.485Z,83.29
2023-03-08T12:05:39.241Z,84.03
2023-03-08T12:11:08.590Z,82.83
2023-03-08T12:16:15.425Z,81.94
2023-03-08T12:21:41.650Z,83.13
2023-03-08T12:26:56.314Z,83.10
2023-03-08T12:32:00.413Z,81.73
2023-03-08T12:37:03.184Z,81.80
2023-03-08T12:42:11.598Z,83.03
2023-03-08T12:47:13.741Z,81.35
2023-03-08T12:52:19.427Z,79.83
2023-03-08T12:57:27.119Z,78.82
2023-03-08T13:02:33.644Z,78.81
2023-03-08T13:08:08.896Z,80.08
2023-03-08T13:13:18.485Z,81.68
2023-03-08T13:18:33.247Z,81.47
2023-03-08T13:23:44.267Z,78.97
2023-03-08T13:28:48.364Z,79.31
2023-03-08T13:33:56.451Z,79.93
2023-03-08T13:39:01.765Z,81.04
2023-03-08T13:44:21.278Z,79.33
2023-03-08T13:49:33.221Z,75.35
2023-03-08T13:54:42.820Z,75.08
2023-03-08T13:59:54.036Z,74.18
2023-03-08T14:04:57.685Z,65.16
2023-03-08T14:09:59.882Z,64.86
2023-03-08T14:15:05.802Z,67.00
2023-03-08T14:20:22.622Z,74.04
2023-03-08T14:25:32.538Z,75.72
2023-03-08T14:30:34.935Z,76.79
2023-03-08T14:35:43.595Z,77.99
2023-03-08T14:40:52.247Z,78.79
2023-03-08T14:46:03.469Z,78.05
2023-03-08T14:51:26.367Z,81.25
2023-03-08T14:56:31.686Z,82.38
2023-03-08T15:01:37.853Z,83.93
2023-03-08T15:06:40.723Z,85.89
2023-03-08T15:11:45.459Z,86.89
2023-03-08T15:16:47.780Z,87.03
2023-03-08T15:21:49.999Z,86.05
2023-03-08T15:26:52.801Z,88.27
2023-03-08T15:31:56.605Z,90.10
2023-03-08T15:36:58.852Z,89.65
2023-03-08T15:42:01.117Z,89.28
2023-03-08T15:47:03.294Z,88.65
2023-03-08T15:52:07.607Z,88.23
2023-03-08T15:57:10.836Z,89.29
2023-03-08T16:02:18.535Z,89.39
2023-03-08T16:07:20.943Z,88.28
2023-03-08T16:12:23.481Z,88.66
2023-03-08T16:17:28.843Z,88.58
2023-03-08T16:22:30.914Z,90.51
2023-03-08T16:27:35.718Z,92.26
2023-03-08T16:32:39.310Z,94.02
2023-03-08T16:37:41.586Z,94.34
2023-03-08T16:42:43.651Z,94.81
2023-03-08T16:47:46.520Z,95.62
2023-03-08T16:52:48.634Z,100.00
2023-03-08T16:57:51.309Z,100.00
2023-03-08T17:02:53.329Z,100.00
2023-03-08T17:07:55.344Z,100.00
2023-03-08T17:12:57.665Z,100.00
2023-03-08T17:17:59.910Z,100.00
2023-03-08T17:23:02.215Z,100.00
2023-03-08T17:28:06.428Z,100.00
2023-03-08T17:33:10.482Z,100.00
2023-03-08T17:38:12.644Z,100.00
2023-03-08T17:43:15.287Z,100.00
2023-03-08T17:48:17.375Z,100.00
2023-03-08T17:53:20.198Z,100.00
2023-03-08T17:58:22.656Z,100.00
2023-03-08T18:03:24.783Z,100.00
2023-03-08T18:08:26.967Z,100.00
2023-03-08T18:13:29.088Z,100.00
2023-03-08T18:18:31.318Z,100.00
2023-03-08T18:23:33.430Z,100.00
2023-03-08T18:28:36.528Z,100.00
2023-03-08T18:33:38.948Z,100.00
2023-03-08T18:38:42.988Z,100.00
2023-03-08T18:43:45.541Z,100.00
2023-03-08T18:48:50.882Z,100.00
2023-03-08T18:53:56.151Z,100.00
2023-03-08T18:59:01.554Z,100.00
2023-03-08T19:04:06.308Z,100.00
2023-03-08T19:09:14.349Z,100.00
2023-03-08T19:14:17.432Z,98.40
2023-03-08T19:19:19.893Z,99.56
2023-03-08T19:24:22.641Z,100.00
2023-03-08T19:29:30.718Z,100.00
2023-03-08T19:34:39.268Z,100.00
2023-03-08T19:39:43.778Z,100.00
2023-03-08T19:44:48.627Z,100.00
2023-03-08T19:49:51.404Z,100.00
2023-03-08T19:54:54.003Z,100.00
2023-03-08T19:59:57.808Z,100.00
2023-03-08T20:05:00.914Z,100.00
2023-03-08T20:10:15.508Z,100.00
2023-03-08T20:15:18.533Z,100.00
2023-03-08T20:20:21.094Z,100.00
2023-03-08T20:25:23.604Z,100.00
2023-03-08T20:30:26.005Z,100.00
2023-03-08T20:35:28.797Z,100.00
2023-03-08T20:40:31.287Z,100.00
2023-03-08T20:45:33.886Z,100.00
2023-03-08T20:50:36.381Z,100.00
2023-03-08T20:55:39.818Z,100.00
2023-03-08T21:00:42.301Z,100.00
2023-03-08T21:05:44.946Z,100.00
2023-03-08T21:10:47.385Z,100.00
2023-03-08T21:15:49.934Z,100.00
2023-03-08T21:20:52.001Z,100.00
2023-03-08T21:25:57.294Z,100.00
2023-03-08T21:30:59.344Z,100.00
2023-03-08T21:36:01.656Z,100.00
2023-03-08T21:41:04.149Z,100.00
2023-03-08T21:46:06.353Z,100.00
2023-03-08T21:51:09.470Z,100.00
2023-03-08T21:56:15.144Z,100.00
2023-03-08T22:01:24.465Z,100.00
2023-03-08T22:06:27.702Z,100.00
2023-03-08T22:11:30.387Z,100.00
2023-03-08T22:16:33.812Z,100.00
2023-03-08T22:21:36.406Z,100.00
2023-03-08T22:26:39.007Z,100.00
2023-03-08T22:31:41.774Z,100.00
2023-03-08T22:36:44.220Z,100.00
2023-03-08T22:41:46.661Z,100.00
2023-03-08T22:46:49.435Z,100.00
2023-03-08T22:51:52.560Z,100.00
2023-03-08T22:56:54.934Z,100.00
2023-03-08T23:01:57.113Z,100.00
2023-03-08T23:06:59.165Z,100.00
2023-03-08T23:12:04.845Z,100.00
2023-03-08T23:17:06.967Z,100.00
2023-03-08T23:22:09.483Z,100.00
2023-03-08T23:27:11.853Z,100.00
2023-03-08T23:32:14.111Z,100.00
2023-03-08T23:37:16.455Z,100.00
2023-03-08T23:42:18.526Z,100.00
2023-03-08T23:47:20.518Z,100.00
2023-03-08T23:52:22.664Z,100.00
2023-03-08T23:57:24.724Z,100.00
